sensor_id;sensor_type;location;lat;lon;timestamp;temperature;humidity
17182;DHT22;8706;48.254;16.422;2024-03-02T00:01:10;19.00;63.00
17182;DHT22;8706;48.254;16.422;2024-03-02T00:03:37;19.00;63.10
17182;DHT22;8706;48.254;16.422;2024-03-02T00:06:04;19.00;63.20
17182;DHT22;8706;48.254;16.422;2024-03-02T00:08:31;18.90;63.20
17182;DHT22;8706;48.254;16.422;2024-03-02T00:11:00;18.90;63.20
17182;DHT22;8706;48.254;16.422;2024-03-02T00:13:29;18.90;63.10
17182;DHT22;8706;48.254;16.422;2024-03-02T00:15:56;18.90;63.20
17182;DHT22;8706;48.254;16.422;2024-03-02T00:18:25;18.90;63.10
17182;DHT22;8706;48.254;16.422;2024-03-02T00:20:53;18.90;63.20
17182;DHT22;8706;48.254;16.422;2024-03-02T00:23:21;19.00;63.10
17182;DHT22;8706;48.254;16.422;2024-03-02T00:25:50;18.90;63.00
17182;DHT22;8706;48.254;16.422;2024-03-02T00:28:21;18.90;63.10
17182;DHT22;8706;48.254;16.422;2024-03-02T00:30:56;18.90;63.10
17182;DHT22;8706;48.254;16.422;2024-03-02T00:33:25;18.90;63.20
17182;DHT22;8706;48.254;16.422;2024-03-02T00:35:53;18.90;63.20
17182;DHT22;8706;48.254;16.422;2024-03-02T00:38:20;18.90;63.10
17182;DHT22;8706;48.254;16.422;2024-03-02T00:40:48;18.90;63.10
17182;DHT22;8706;48.254;16.422;2024-03-02T00:43:42;18.90;63.20
17182;DHT22;8706;48.254;16.422;2024-03-02T00:46:11;18.90;63.20
17182;DHT22;8706;48.254;16.422;2024-03-02T00:48:38;18.90;63.20
17182;DHT22;8706;48.254;16.422;2024-03-02T00:51:05;18.90;63.30
17182;DHT22;8706;48.254;16.422;2024-03-02T00:53:32;18.90;63.20
17182;DHT22;8706;48.254;16.422;2024-03-02T00:56:01;18.90;63.30
17182;DHT22;8706;48.254;16.422;2024-03-02T00:58:29;18.90;63.30
17182;DHT22;8706;48.254;16.422;2024-03-02T01:00:56;18.90;63.20
17182;DHT22;8706;48.254;16.422;2024-03-02T01:03:23;18.90;63.20
17182;DHT22;8706;48.254;16.422;2024-03-02T01:05:50;18.90;63.20
17182;DHT22;8706;48.254;16.422;2024-03-02T01:08:16;18.90;63.20
17182;DHT22;8706;48.254;16.422;2024-03-02T01:10:43;18.90;63.30
17182;DHT22;8706;48.254;16.422;2024-03-02T01:13:10;18.80;63.30
17182;DHT22;8706;48.254;16.422;2024-03-02T01:15:38;18.80;63.30
17182;DHT22;8706;48.254;16.422;2024-03-02T01:18:05;18.80;63.30
17182;DHT22;8706;48.254;16.422;2024-03-02T01:20:32;18.90;63.20
17182;DHT22;8706;48.254;16.422;2024-03-02T01:22:59;18.90;63.20
17182;DHT22;8706;48.254;16.422;2024-03-02T01:25:26;18.90;63.20
17182;DHT22;8706;48.254;16.422;2024-03-02T01:27:53;18.90;63.30
17182;DHT22;8706;48.254;16.422;2024-03-02T01:30:20;18.90;63.30
17182;DHT22;8706;48.254;16.422;2024-03-02T01:32:48;18.90;63.30
17182;DHT22;8706;48.254;16.422;2024-03-02T01:35:15;18.90;63.30
17182;DHT22;8706;48.254;16.422;2024-03-02T01:37:42;18.80;63.30
17182;DHT22;8706;48.254;16.422;2024-03-02T01:40:10;18.80;63.40
17182;DHT22;8706;48.254;16.422;2024-03-02T01:42:38;18.80;63.30
17182;DHT22;8706;48.254;16.422;2024-03-02T01:45:06;18.80;63.20
17182;DHT22;8706;48.254;16.422;2024-03-02T01:47:33;18.90;63.30
17182;DHT22;8706;48.254;16.422;2024-03-02T01:50:02;18.80;63.20
17182;DHT22;8706;48.254;16.422;2024-03-02T01:52:29;18.90;63.20
17182;DHT22;8706;48.254;16.422;2024-03-02T01:54:56;18.90;63.20
17182;DHT22;8706;48.254;16.422;2024-03-02T01:57:23;18.80;63.20
17182;DHT22;8706;48.254;16.422;2024-03-02T01:59:50;18.90;63.30
17182;DHT22;8706;48.254;16.422;2024-03-02T02:02:17;18.80;63.20
17182;DHT22;8706;48.254;16.422;2024-03-02T02:04:44;18.80;63.30
17182;DHT22;8706;48.254;16.422;2024-03-02T02:07:12;18.80;63.30
17182;DHT22;8706;48.254;16.422;2024-03-02T02:09:40;18.80;63.20
17182;DHT22;8706;48.254;16.422;2024-03-02T02:12:08;18.80;63.20
17182;DHT22;8706;48.254;16.422;2024-03-02T02:14:35;18.80;63.20
17182;DHT22;8706;48.254;16.422;2024-03-02T02:17:02;18.80;63.20
17182;DHT22;8706;48.254;16.422;2024-03-02T02:19:29;18.80;63.30
17182;DHT22;8706;48.254;16.422;2024-03-02T02:21:57;18.80;63.30
17182;DHT22;8706;48.254;16.422;2024-03-02T02:24:24;18.80;64.00
17182;DHT22;8706;48.254;16.422;2024-03-02T02:26:50;18.80;63.30
17182;DHT22;8706;48.254;16.422;2024-03-02T02:29:17;18.70;63.30
17182;DHT22;8706;48.254;16.422;2024-03-02T02:31:44;18.80;63.30
17182;DHT22;8706;48.254;16.422;2024-03-02T02:34:11;18.80;63.40
17182;DHT22;8706;48.254;16.422;2024-03-02T02:36:39;18.80;63.30
17182;DHT22;8706;48.254;16.422;2024-03-02T02:39:10;18.80;63.30
17182;DHT22;8706;48.254;16.422;2024-03-02T02:41:37;18.80;63.30
17182;DHT22;8706;48.254;16.422;2024-03-02T02:44:05;18.80;63.30
17182;DHT22;8706;48.254;16.422;2024-03-02T02:46:32;18.80;63.40
17182;DHT22;8706;48.254;16.422;2024-03-02T02:48:59;18.80;63.30
17182;DHT22;8706;48.254;16.422;2024-03-02T02:51:26;18.80;63.30
17182;DHT22;8706;48.254;16.422;2024-03-02T02:53:52;18.80;63.30
17182;DHT22;8706;48.254;16.422;2024-03-02T02:56:21;18.70;63.30
17182;DHT22;8706;48.254;16.422;2024-03-02T02:58:48;18.70;63.40
17182;DHT22;8706;48.254;16.422;2024-03-02T03:01:15;18.70;63.40
17182;DHT22;8706;48.254;16.422;2024-03-02T03:03:42;18.80;63.40
17182;DHT22;8706;48.254;16.422;2024-03-02T03:06:09;18.80;63.20
17182;DHT22;8706;48.254;16.422;2024-03-02T03:08:36;18.80;63.20
17182;DHT22;8706;48.254;16.422;2024-03-02T03:11:03;18.80;63.20
17182;DHT22;8706;48.254;16.422;2024-03-02T03:13:32;18.70;63.30
17182;DHT22;8706;48.254;16.422;2024-03-02T03:15:59;18.80;63.30
17182;DHT22;8706;48.254;16.422;2024-03-02T03:18:26;18.80;63.30
17182;DHT22;8706;48.254;16.422;2024-03-02T03:20:53;18.70;63.40
17182;DHT22;8706;48.254;16.422;2024-03-02T03:23:20;18.70;63.50
17182;DHT22;8706;48.254;16.422;2024-03-02T03:25:46;18.70;63.40
17182;DHT22;8706;48.254;16.422;2024-03-02T03:28:13;18.80;63.30
17182;DHT22;8706;48.254;16.422;2024-03-02T03:30:41;18.70;63.30
17182;DHT22;8706;48.254;16.422;2024-03-02T03:33:08;18.70;63.40
17182;DHT22;8706;48.254;16.422;2024-03-02T03:35:36;18.70;64.00
17182;DHT22;8706;48.254;16.422;2024-03-02T03:38:04;18.70;63.30
17182;DHT22;8706;48.254;16.422;2024-03-02T03:40:31;18.70;63.30
17182;DHT22;8706;48.254;16.422;2024-03-02T03:42:58;18.80;63.30
17182;DHT22;8706;48.254;16.422;2024-03-02T03:45:25;18.80;63.30
17182;DHT22;8706;48.254;16.422;2024-03-02T03:47:54;18.70;63.30
17182;DHT22;8706;48.254;16.422;2024-03-02T03:50:21;18.70;63.30
17182;DHT22;8706;48.254;16.422;2024-03-02T03:52:48;18.70;63.40
17182;DHT22;8706;48.254;16.422;2024-03-02T03:55:15;18.70;63.40
17182;DHT22;8706;48.254;16.422;2024-03-02T03:57:42;18.70;63.40
17182;DHT22;8706;48.254;16.422;2024-03-02T04:00:09;18.70;63.40
17182;DHT22;8706;48.254;16.422;2024-03-02T04:02:37;18.70;63.30
17182;DHT22;8706;48.254;16.422;2024-03-02T04:05:06;18.70;63.40
17182;DHT22;8706;48.254;16.422;2024-03-02T04:07:35;18.70;63.40
17182;DHT22;8706;48.254;16.422;2024-03-02T04:10:07;18.70;63.40
17182;DHT22;8706;48.254;16.422;2024-03-02T04:12:35;18.70;63.50
17182;DHT22;8706;48.254;16.422;2024-03-02T04:15:04;18.70;63.40
17182;DHT22;8706;48.254;16.422;2024-03-02T04:17:32;18.70;63.30
17182;DHT22;8706;48.254;16.422;2024-03-02T04:19:59;18.70;63.30
17182;DHT22;8706;48.254;16.422;2024-03-02T04:22:27;18.70;63.20
17182;DHT22;8706;48.254;16.422;2024-03-02T04:24:54;18.70;63.30
17182;DHT22;8706;48.254;16.422;2024-03-02T04:27:21;18.70;63.40
17182;DHT22;8706;48.254;16.422;2024-03-02T04:29:48;18.70;63.40
17182;DHT22;8706;48.254;16.422;2024-03-02T04:32:15;18.70;63.40
17182;DHT22;8706;48.254;16.422;2024-03-02T04:34:42;18.70;63.30
17182;DHT22;8706;48.254;16.422;2024-03-02T04:37:10;18.60;63.40
17182;DHT22;8706;48.254;16.422;2024-03-02T04:39:39;18.60;63.50
17182;DHT22;8706;48.254;16.422;2024-03-02T04:42:06;18.60;63.40
17182;DHT22;8706;48.254;16.422;2024-03-02T04:44:33;18.60;63.40
17182;DHT22;8706;48.254;16.422;2024-03-02T04:47:00;18.70;63.40
17182;DHT22;8706;48.254;16.422;2024-03-02T04:49:26;18.70;63.30
17182;DHT22;8706;48.254;16.422;2024-03-02T04:51:53;18.70;63.30
17182;DHT22;8706;48.254;16.422;2024-03-02T04:54:20;18.70;63.40
17182;DHT22;8706;48.254;16.422;2024-03-02T04:56:48;18.70;63.30
17182;DHT22;8706;48.254;16.422;2024-03-02T04:59:16;18.70;63.20
17182;DHT22;8706;48.254;16.422;2024-03-02T05:01:43;18.70;63.20
17182;DHT22;8706;48.254;16.422;2024-03-02T05:04:10;18.70;63.30
17182;DHT22;8706;48.254;16.422;2024-03-02T05:06:38;18.70;63.20
17182;DHT22;8706;48.254;16.422;2024-03-02T05:09:06;18.70;63.20
17182;DHT22;8706;48.254;16.422;2024-03-02T05:11:33;18.70;63.30
17182;DHT22;8706;48.254;16.422;2024-03-02T05:14:20;18.70;63.20
17182;DHT22;8706;48.254;16.422;2024-03-02T05:16:47;18.70;63.20
17182;DHT22;8706;48.254;16.422;2024-03-02T05:19:14;18.70;63.20
17182;DHT22;8706;48.254;16.422;2024-03-02T05:21:41;18.70;63.20
17182;DHT22;8706;48.254;16.422;2024-03-02T05:24:08;18.70;63.20
17182;DHT22;8706;48.254;16.422;2024-03-02T05:26:36;18.70;63.10
17182;DHT22;8706;48.254;16.422;2024-03-02T05:29:02;18.70;63.10
17182;DHT22;8706;48.254;16.422;2024-03-02T05:31:31;18.70;63.10
17182;DHT22;8706;48.254;16.422;2024-03-02T05:33:57;18.70;63.10
17182;DHT22;8706;48.254;16.422;2024-03-02T05:36:24;18.70;63.10
17182;DHT22;8706;48.254;16.422;2024-03-02T05:38:51;18.70;63.20
17182;DHT22;8706;48.254;16.422;2024-03-02T05:41:18;18.70;63.10
17182;DHT22;8706;48.254;16.422;2024-03-02T05:43:45;18.70;63.50
17182;DHT22;8706;48.254;16.422;2024-03-02T05:46:12;18.70;63.10
17182;DHT22;8706;48.254;16.422;2024-03-02T05:48:40;18.70;63.10
17182;DHT22;8706;48.254;16.422;2024-03-02T05:51:07;18.70;63.10
17182;DHT22;8706;48.254;16.422;2024-03-02T05:53:34;18.70;63.10
17182;DHT22;8706;48.254;16.422;2024-03-02T05:56:04;18.70;63.00
17182;DHT22;8706;48.254;16.422;2024-03-02T05:58:31;18.70;63.00
17182;DHT22;8706;48.254;16.422;2024-03-02T06:01:18;18.70;63.00
17182;DHT22;8706;48.254;16.422;2024-03-02T06:03:46;18.70;63.00
17182;DHT22;8706;48.254;16.422;2024-03-02T06:06:14;18.70;63.00
17182;DHT22;8706;48.254;16.422;2024-03-02T06:08:41;18.70;63.00
17182;DHT22;8706;48.254;16.422;2024-03-02T06:11:08;18.80;62.90
17182;DHT22;8706;48.254;16.422;2024-03-02T06:13:35;18.70;62.90
17182;DHT22;8706;48.254;16.422;2024-03-02T06:16:02;18.70;62.80
17182;DHT22;8706;48.254;16.422;2024-03-02T06:18:29;18.80;62.90
17182;DHT22;8706;48.254;16.422;2024-03-02T06:20:57;18.80;62.80
17182;DHT22;8706;48.254;16.422;2024-03-02T06:23:24;18.80;62.80
17182;DHT22;8706;48.254;16.422;2024-03-02T06:25:51;18.80;62.80
17182;DHT22;8706;48.254;16.422;2024-03-02T06:28:18;18.80;62.80
17182;DHT22;8706;48.254;16.422;2024-03-02T06:30:45;18.80;62.70
17182;DHT22;8706;48.254;16.422;2024-03-02T06:33:11;18.80;62.80
17182;DHT22;8706;48.254;16.422;2024-03-02T06:35:38;18.80;62.70
17182;DHT22;8706;48.254;16.422;2024-03-02T06:38:07;18.80;62.70
17182;DHT22;8706;48.254;16.422;2024-03-02T06:40:33;18.80;62.70
17182;DHT22;8706;48.254;16.422;2024-03-02T06:43:03;18.80;62.70
17182;DHT22;8706;48.254;16.422;2024-03-02T06:45:30;18.80;62.70
17182;DHT22;8706;48.254;16.422;2024-03-02T06:47:57;18.80;62.70
17182;DHT22;8706;48.254;16.422;2024-03-02T06:50:24;18.80;62.70
17182;DHT22;8706;48.254;16.422;2024-03-02T06:52:50;18.90;62.60
17182;DHT22;8706;48.254;16.422;2024-03-02T06:55:19;18.90;63.20
17182;DHT22;8706;48.254;16.422;2024-03-02T06:57:45;18.90;62.60
17182;DHT22;8706;48.254;16.422;2024-03-02T07:00:13;18.90;62.60
17182;DHT22;8706;48.254;16.422;2024-03-02T07:02:40;18.90;62.50
17182;DHT22;8706;48.254;16.422;2024-03-02T07:05:07;18.90;62.50
17182;DHT22;8706;48.254;16.422;2024-03-02T07:07:35;18.90;62.50
17182;DHT22;8706;48.254;16.422;2024-03-02T07:10:02;18.90;62.40
17182;DHT22;8706;48.254;16.422;2024-03-02T07:12:31;19.00;62.40
17182;DHT22;8706;48.254;16.422;2024-03-02T07:14:57;19.00;62.40
17182;DHT22;8706;48.254;16.422;2024-03-02T07:17:44;19.00;62.30
17182;DHT22;8706;48.254;16.422;2024-03-02T07:20:11;19.00;62.30
17182;DHT22;8706;48.254;16.422;2024-03-02T07:22:38;19.00;62.20
17182;DHT22;8706;48.254;16.422;2024-03-02T07:25:06;19.00;62.20
17182;DHT22;8706;48.254;16.422;2024-03-02T07:27:35;19.00;62.10
17182;DHT22;8706;48.254;16.422;2024-03-02T07:30:02;19.10;62.20
17182;DHT22;8706;48.254;16.422;2024-03-02T07:32:29;19.10;62.10
17182;DHT22;8706;48.254;16.422;2024-03-02T07:34:56;19.10;62.00
17182;DHT22;8706;48.254;16.422;2024-03-02T07:37:23;19.10;62.00
17182;DHT22;8706;48.254;16.422;2024-03-02T07:39:50;19.20;62.00
17182;DHT22;8706;48.254;16.422;2024-03-02T07:42:17;19.20;61.80
17182;DHT22;8706;48.254;16.422;2024-03-02T07:44:45;19.20;61.80
17182;DHT22;8706;48.254;16.422;2024-03-02T07:47:12;19.20;61.80
17182;DHT22;8706;48.254;16.422;2024-03-02T07:49:40;19.20;61.70
17182;DHT22;8706;48.254;16.422;2024-03-02T07:52:07;19.20;61.70
17182;DHT22;8706;48.254;16.422;2024-03-02T07:54:33;19.20;61.70
17182;DHT22;8706;48.254;16.422;2024-03-02T07:57:00;19.20;61.70
17182;DHT22;8706;48.254;16.422;2024-03-02T07:59:27;19.30;61.70
17182;DHT22;8706;48.254;16.422;2024-03-02T08:01:56;19.30;61.70
17182;DHT22;8706;48.254;16.422;2024-03-02T08:04:23;19.30;61.70
17182;DHT22;8706;48.254;16.422;2024-03-02T08:06:50;19.30;61.70
17182;DHT22;8706;48.254;16.422;2024-03-02T08:09:17;19.30;61.70
17182;DHT22;8706;48.254;16.422;2024-03-02T08:11:44;19.30;61.70
17182;DHT22;8706;48.254;16.422;2024-03-02T08:14:11;19.30;61.60
17182;DHT22;8706;48.254;16.422;2024-03-02T08:16:38;19.30;61.60
17182;DHT22;8706;48.254;16.422;2024-03-02T08:19:07;19.30;61.60
17182;DHT22;8706;48.254;16.422;2024-03-02T08:21:34;19.30;61.60
17182;DHT22;8706;48.254;16.422;2024-03-02T08:24:02;19.30;61.50
17182;DHT22;8706;48.254;16.422;2024-03-02T08:26:29;19.30;61.50
17182;DHT22;8706;48.254;16.422;2024-03-02T08:28:57;19.30;61.50
17182;DHT22;8706;48.254;16.422;2024-03-02T08:31:24;19.40;61.40
17182;DHT22;8706;48.254;16.422;2024-03-02T08:33:51;19.40;61.40
17182;DHT22;8706;48.254;16.422;2024-03-02T08:36:19;19.40;61.40
17182;DHT22;8706;48.254;16.422;2024-03-02T08:38:46;19.40;61.30
17182;DHT22;8706;48.254;16.422;2024-03-02T08:41:14;19.40;61.30
17182;DHT22;8706;48.254;16.422;2024-03-02T08:43:42;19.40;61.30
17182;DHT22;8706;48.254;16.422;2024-03-02T08:46:09;19.40;61.30
17182;DHT22;8706;48.254;16.422;2024-03-02T08:48:36;19.40;61.30
17182;DHT22;8706;48.254;16.422;2024-03-02T08:51:04;19.40;61.30
17182;DHT22;8706;48.254;16.422;2024-03-02T08:53:34;19.50;61.30
17182;DHT22;8706;48.254;16.422;2024-03-02T08:56:01;19.50;61.20
17182;DHT22;8706;48.254;16.422;2024-03-02T08:58:31;19.50;61.20
17182;DHT22;8706;48.254;16.422;2024-03-02T09:00:58;19.50;61.10
17182;DHT22;8706;48.254;16.422;2024-03-02T09:03:25;19.50;61.10
17182;DHT22;8706;48.254;16.422;2024-03-02T09:05:52;19.50;61.00
17182;DHT22;8706;48.254;16.422;2024-03-02T09:08:19;19.50;61.00
17182;DHT22;8706;48.254;16.422;2024-03-02T09:10:47;19.60;61.00
17182;DHT22;8706;48.254;16.422;2024-03-02T09:13:14;19.60;61.00
17182;DHT22;8706;48.254;16.422;2024-03-02T09:15:41;19.70;60.90
17182;DHT22;8706;48.254;16.422;2024-03-02T09:18:09;19.70;60.70
17182;DHT22;8706;48.254;16.422;2024-03-02T09:20:36;19.80;60.60
17182;DHT22;8706;48.254;16.422;2024-03-02T09:23:03;19.80;60.50
17182;DHT22;8706;48.254;16.422;2024-03-02T09:25:30;19.90;60.50
17182;DHT22;8706;48.254;16.422;2024-03-02T09:27:59;19.90;60.30
17182;DHT22;8706;48.254;16.422;2024-03-02T09:30:25;20.00;60.30
17182;DHT22;8706;48.254;16.422;2024-03-02T09:32:52;20.00;60.20
17182;DHT22;8706;48.254;16.422;2024-03-02T09:35:19;20.00;60.00
17182;DHT22;8706;48.254;16.422;2024-03-02T09:37:46;20.10;60.00
17182;DHT22;8706;48.254;16.422;2024-03-02T09:40:13;20.10;59.90
17182;DHT22;8706;48.254;16.422;2024-03-02T09:42:42;20.30;59.70
17182;DHT22;8706;48.254;16.422;2024-03-02T09:45:10;20.40;59.40
17182;DHT22;8706;48.254;16.422;2024-03-02T09:47:38;20.40;59.30
17182;DHT22;8706;48.254;16.422;2024-03-02T09:50:06;20.50;59.30
17182;DHT22;8706;48.254;16.422;2024-03-02T09:52:33;20.50;59.30
17182;DHT22;8706;48.254;16.422;2024-03-02T09:55:01;20.60;59.00
17182;DHT22;8706;48.254;16.422;2024-03-02T09:57:28;20.70;58.90
17182;DHT22;8706;48.254;16.422;2024-03-02T09:59:54;20.80;58.80
17182;DHT22;8706;48.254;16.422;2024-03-02T10:02:23;20.90;58.70
17182;DHT22;8706;48.254;16.422;2024-03-02T10:04:50;21.00;58.50
17182;DHT22;8706;48.254;16.422;2024-03-02T10:07:18;21.10;58.30
17182;DHT22;8706;48.254;16.422;2024-03-02T10:09:46;21.30;58.20
17182;DHT22;8706;48.254;16.422;2024-03-02T10:12:14;21.10;58.20
17182;DHT22;8706;48.254;16.422;2024-03-02T10:14:41;21.10;58.20
17182;DHT22;8706;48.254;16.422;2024-03-02T10:17:09;21.20;58.10
17182;DHT22;8706;48.254;16.422;2024-03-02T10:19:38;21.10;58.20
17182;DHT22;8706;48.254;16.422;2024-03-02T10:22:06;21.20;58.20
17182;DHT22;8706;48.254;16.422;2024-03-02T10:24:37;21.10;58.30
17182;DHT22;8706;48.254;16.422;2024-03-02T10:27:10;21.10;58.30
17182;DHT22;8706;48.254;16.422;2024-03-02T10:29:38;21.00;58.30
17182;DHT22;8706;48.254;16.422;2024-03-02T10:32:07;21.10;58.20
17182;DHT22;8706;48.254;16.422;2024-03-02T10:34:39;21.10;58.20
17182;DHT22;8706;48.254;16.422;2024-03-02T10:37:06;21.10;58.20
17182;DHT22;8706;48.254;16.422;2024-03-02T10:39:34;21.10;58.10
17182;DHT22;8706;48.254;16.422;2024-03-02T10:42:03;21.10;58.30
17182;DHT22;8706;48.254;16.422;2024-03-02T10:44:30;21.00;58.30
17182;DHT22;8706;48.254;16.422;2024-03-02T10:47:00;21.00;58.40
17182;DHT22;8706;48.254;16.422;2024-03-02T10:49:29;20.90;58.40
17182;DHT22;8706;48.254;16.422;2024-03-02T10:51:57;20.90;58.50
17182;DHT22;8706;48.254;16.422;2024-03-02T10:54:24;20.90;58.60
17182;DHT22;8706;48.254;16.422;2024-03-02T10:56:56;20.90;58.50
17182;DHT22;8706;48.254;16.422;2024-03-02T10:59:27;20.90;58.60
17182;DHT22;8706;48.254;16.422;2024-03-02T11:01:57;20.90;58.60
17182;DHT22;8706;48.254;16.422;2024-03-02T11:04:25;20.80;58.70
17182;DHT22;8706;48.254;16.422;2024-03-02T11:06:58;20.80;58.70
17182;DHT22;8706;48.254;16.422;2024-03-02T11:09:27;20.80;58.80
17182;DHT22;8706;48.254;16.422;2024-03-02T11:12:00;20.80;58.90
17182;DHT22;8706;48.254;16.422;2024-03-02T11:14:31;20.80;58.90
17182;DHT22;8706;48.254;16.422;2024-03-02T11:16:59;20.80;58.90
17182;DHT22;8706;48.254;16.422;2024-03-02T11:19:27;20.70;58.90
17182;DHT22;8706;48.254;16.422;2024-03-02T11:21:55;20.70;59.00
17182;DHT22;8706;48.254;16.422;2024-03-02T11:24:33;20.70;59.00
17182;DHT22;8706;48.254;16.422;2024-03-02T11:27:01;20.70;59.10
17182;DHT22;8706;48.254;16.422;2024-03-02T11:29:44;20.60;59.10
17182;DHT22;8706;48.254;16.422;2024-03-02T11:32:15;20.60;59.10
17182;DHT22;8706;48.254;16.422;2024-03-02T11:34:44;20.60;59.20
17182;DHT22;8706;48.254;16.422;2024-03-02T11:37:12;20.60;59.20
17182;DHT22;8706;48.254;16.422;2024-03-02T11:39:42;20.60;59.30
17182;DHT22;8706;48.254;16.422;2024-03-02T11:42:09;20.60;59.30
17182;DHT22;8706;48.254;16.422;2024-03-02T11:44:38;20.60;59.30
17182;DHT22;8706;48.254;16.422;2024-03-02T11:47:07;20.60;59.40
17182;DHT22;8706;48.254;16.422;2024-03-02T11:49:38;20.60;59.40
17182;DHT22;8706;48.254;16.422;2024-03-02T11:52:06;20.60;59.30
17182;DHT22;8706;48.254;16.422;2024-03-02T11:54:33;20.70;59.20
17182;DHT22;8706;48.254;16.422;2024-03-02T11:57:03;20.80;59.10
17182;DHT22;8706;48.254;16.422;2024-03-02T11:59:30;20.80;58.90
17182;DHT22;8706;48.254;16.422;2024-03-02T12:01:58;20.90;58.90
17182;DHT22;8706;48.254;16.422;2024-03-02T12:04:26;20.90;58.90
17182;DHT22;8706;48.254;16.422;2024-03-02T12:06:56;20.90;58.90
17182;DHT22;8706;48.254;16.422;2024-03-02T12:09:25;20.90;58.90
17182;DHT22;8706;48.254;16.422;2024-03-02T12:12:03;20.90;58.90
17182;DHT22;8706;48.254;16.422;2024-03-02T12:14:31;20.90;58.90
17182;DHT22;8706;48.254;16.422;2024-03-02T12:16:58;20.80;58.90
17182;DHT22;8706;48.254;16.422;2024-03-02T12:19:25;20.80;59.00
17182;DHT22;8706;48.254;16.422;2024-03-02T12:21:52;20.80;59.00
17182;DHT22;8706;48.254;16.422;2024-03-02T12:24:21;20.80;59.10
17182;DHT22;8706;48.254;16.422;2024-03-02T12:26:49;20.70;59.10
17182;DHT22;8706;48.254;16.422;2024-03-02T12:29:18;20.70;59.20
17182;DHT22;8706;48.254;16.422;2024-03-02T12:31:48;20.70;59.30
17182;DHT22;8706;48.254;16.422;2024-03-02T12:34:16;20.60;59.30
17182;DHT22;8706;48.254;16.422;2024-03-02T12:36:44;20.60;59.30
17182;DHT22;8706;48.254;16.422;2024-03-02T12:39:13;20.70;59.40
17182;DHT22;8706;48.254;16.422;2024-03-02T12:41:40;20.60;59.30
17182;DHT22;8706;48.254;16.422;2024-03-02T12:44:08;20.70;59.90
17182;DHT22;8706;48.254;16.422;2024-03-02T12:46:36;20.90;59.10
17182;DHT22;8706;48.254;16.422;2024-03-02T12:49:08;21.00;58.80
17182;DHT22;8706;48.254;16.422;2024-03-02T12:51:36;21.20;58.70
17182;DHT22;8706;48.254;16.422;2024-03-02T12:54:03;21.40;58.40
17182;DHT22;8706;48.254;16.422;2024-03-02T12:56:31;21.50;58.10
17182;DHT22;8706;48.254;16.422;2024-03-02T12:58:59;21.70;57.90
17182;DHT22;8706;48.254;16.422;2024-03-02T13:01:26;21.90;57.50
17182;DHT22;8706;48.254;16.422;2024-03-02T13:03:54;22.00;57.20
17182;DHT22;8706;48.254;16.422;2024-03-02T13:06:23;22.20;56.90
17182;DHT22;8706;48.254;16.422;2024-03-02T13:08:53;22.20;56.80
17182;DHT22;8706;48.254;16.422;2024-03-02T13:11:21;22.10;57.10
17182;DHT22;8706;48.254;16.422;2024-03-02T13:13:48;22.00;57.20
17182;DHT22;8706;48.254;16.422;2024-03-02T13:16:15;21.90;57.30
17182;DHT22;8706;48.254;16.422;2024-03-02T13:18:44;22.10;57.00
17182;DHT22;8706;48.254;16.422;2024-03-02T13:21:12;22.20;56.80
17182;DHT22;8706;48.254;16.422;2024-03-02T13:23:39;22.20;56.80
17182;DHT22;8706;48.254;16.422;2024-03-02T13:26:06;22.70;56.20
17182;DHT22;8706;48.254;16.422;2024-03-02T13:28:36;22.70;56.10
17182;DHT22;8706;48.254;16.422;2024-03-02T13:31:03;22.70;56.10
17182;DHT22;8706;48.254;16.422;2024-03-02T13:33:31;22.90;55.80
17182;DHT22;8706;48.254;16.422;2024-03-02T13:35:58;22.80;55.80
17182;DHT22;8706;48.254;16.422;2024-03-02T13:38:27;22.80;55.80
17182;DHT22;8706;48.254;16.422;2024-03-02T13:40:54;22.50;56.10
17182;DHT22;8706;48.254;16.422;2024-03-02T13:43:21;22.60;56.00
17182;DHT22;8706;48.254;16.422;2024-03-02T13:45:49;22.80;55.70
17182;DHT22;8706;48.254;16.422;2024-03-02T13:48:17;23.00;55.60
17182;DHT22;8706;48.254;16.422;2024-03-02T13:50:44;22.90;55.60
17182;DHT22;8706;48.254;16.422;2024-03-02T13:53:12;22.70;55.80
17182;DHT22;8706;48.254;16.422;2024-03-02T13:55:40;22.60;56.00
17182;DHT22;8706;48.254;16.422;2024-03-02T13:58:08;22.50;56.10
17182;DHT22;8706;48.254;16.422;2024-03-02T14:00:35;22.40;56.30
17182;DHT22;8706;48.254;16.422;2024-03-02T14:03:03;22.40;56.50
17182;DHT22;8706;48.254;16.422;2024-03-02T14:05:30;22.20;56.70
17182;DHT22;8706;48.254;16.422;2024-03-02T14:07:57;22.10;56.90
17182;DHT22;8706;48.254;16.422;2024-03-02T14:10:25;22.10;57.10
17182;DHT22;8706;48.254;16.422;2024-03-02T14:12:54;22.00;57.20
17182;DHT22;8706;48.254;16.422;2024-03-02T14:15:22;21.90;57.30
17182;DHT22;8706;48.254;16.422;2024-03-02T14:17:49;21.90;57.30
17182;DHT22;8706;48.254;16.422;2024-03-02T14:20:16;21.90;57.20
17182;DHT22;8706;48.254;16.422;2024-03-02T14:22:47;22.00;57.20
17182;DHT22;8706;48.254;16.422;2024-03-02T14:25:14;21.90;57.30
17182;DHT22;8706;48.254;16.422;2024-03-02T14:27:41;21.90;57.40
17182;DHT22;8706;48.254;16.422;2024-03-02T14:30:11;21.90;57.50
17182;DHT22;8706;48.254;16.422;2024-03-02T14:32:38;21.80;57.50
17182;DHT22;8706;48.254;16.422;2024-03-02T14:35:06;21.70;57.60
17182;DHT22;8706;48.254;16.422;2024-03-02T14:37:35;21.80;57.50
17182;DHT22;8706;48.254;16.422;2024-03-02T14:40:03;21.90;57.40
17182;DHT22;8706;48.254;16.422;2024-03-02T14:42:32;21.90;57.40
17182;DHT22;8706;48.254;16.422;2024-03-02T14:44:59;21.90;57.40
17182;DHT22;8706;48.254;16.422;2024-03-02T14:47:27;21.90;57.40
17182;DHT22;8706;48.254;16.422;2024-03-02T14:49:54;21.90;57.50
17182;DHT22;8706;48.254;16.422;2024-03-02T14:52:21;21.90;57.50
17182;DHT22;8706;48.254;16.422;2024-03-02T14:54:48;21.90;57.50
17182;DHT22;8706;48.254;16.422;2024-03-02T14:57:14;21.80;57.60
17182;DHT22;8706;48.254;16.422;2024-03-02T14:59:41;21.70;57.60
17182;DHT22;8706;48.254;16.422;2024-03-02T15:02:09;21.70;57.60
17182;DHT22;8706;48.254;16.422;2024-03-02T15:04:37;21.60;57.80
17182;DHT22;8706;48.254;16.422;2024-03-02T15:07:04;21.50;58.00
17182;DHT22;8706;48.254;16.422;2024-03-02T15:09:31;21.40;58.20
17182;DHT22;8706;48.254;16.422;2024-03-02T15:12:00;21.30;58.40
17182;DHT22;8706;48.254;16.422;2024-03-02T15:14:27;21.30;58.50
17182;DHT22;8706;48.254;16.422;2024-03-02T15:16:54;21.20;58.60
17182;DHT22;8706;48.254;16.422;2024-03-02T15:19:21;21.20;58.70
17182;DHT22;8706;48.254;16.422;2024-03-02T15:21:50;21.10;58.70
17182;DHT22;8706;48.254;16.422;2024-03-02T15:24:16;21.10;58.80
17182;DHT22;8706;48.254;16.422;2024-03-02T15:26:43;21.10;58.70
17182;DHT22;8706;48.254;16.422;2024-03-02T15:29:10;21.20;58.70
17182;DHT22;8706;48.254;16.422;2024-03-02T15:31:37;21.10;58.70
17182;DHT22;8706;48.254;16.422;2024-03-02T15:34:04;21.10;58.80